Romeo-charlie II — FO2619 — position and weather

sailwx.info

Track history (hours):
 
Tides and Currents Weather Stations Pressure Air Temp Water Temp Dewpoint Dewpoint Depression Visibility Wind Speed Wind Dir Waves Ship Positions

Romeo-charlie II

Last reported at 2017-Jul-19 17:42 UTC. Time now 2017-Jul-21 22:52 UTC.
Position N 47°35' W 002°56'.

Length 12 m.

Type: Sailing vessel. MMSI: 227728860.

Date/timePositionNaut miles runAvg speedWind from/ knotsBaromVisibWave heightAir tempDewpointWater temp
2017-Jul-19 17:42N 47°35' W 002°56'1 6.1
2017-Jul-19 17:28N 47°34' W 002°55'23 0.8
2017-Jul-18 11:20N 47°40' W 003°28'23 1.2
2017-Jul-17 15:45N 47°29' W 002°58'1 5.3
2017-Jul-17 15:30N 47°30' W 002°57'1 2.8
2017-Jul-17 15:00N 47°31' W 002°56'5 5.2
2017-Jul-17 14:07N 47°36' W 002°57'1 4.6
2017-Jul-17 14:00N 47°36' W 002°57'0 0.3
2017-Jul-17 13:21N 47°36' W 002°57'0 0.0
2017-Jul-17 12:54N 47°36' W 002°57'0 0.0
2017-Jul-17 12:03N 47°36' W 002°57'0 0.0
2017-Jul-17 12:00N 47°36' W 002°57'  
Track history (hours):
 
Tides and Currents Weather Stations Pressure Air Temp Water Temp Dewpoint Dewpoint Depression Visibility Wind Speed Wind Dir Waves Ship Positions

Romeo-charlie II

Last reported at 2017-Jul-19 17:42 UTC. Time now 2017-Jul-21 22:52 UTC.
Position N 47°35' W 002°56'.

Length 12 m.

Type: Sailing vessel. MMSI: 227728860.

Date/timePositionNaut miles runAvg speedWind from/ knotsBaromVisibWave heightAir tempDewpointWater temp
2017-Jul-19 17:42N 47°35' W 002°56'1 6.1
2017-Jul-19 17:28N 47°34' W 002°55'23 0.8
2017-Jul-18 11:20N 47°40' W 003°28'23 1.2
2017-Jul-17 15:45N 47°29' W 002°58'1 5.3
2017-Jul-17 15:30N 47°30' W 002°57'1 2.8
2017-Jul-17 15:00N 47°31' W 002°56'5 5.2
2017-Jul-17 14:07N 47°36' W 002°57'1 4.6
2017-Jul-17 14:00N 47°36' W 002°57'0 0.3
2017-Jul-17 13:21N 47°36' W 002°57'0 0.0
2017-Jul-17 12:54N 47°36' W 002°57'0 0.0
2017-Jul-17 12:03N 47°36' W 002°57'0 0.0
2017-Jul-17 12:00N 47°36' W 002°57'  

Dump ship's entire track history